Time;durP1;ratioP1;P1;durP2;ratioP2;P2;SDS_P1;SDS_P2;PMS_P1;PMS_P2;Temp;Humidity;BMP_temperature;BMP_pressure;BME280_temperature;BME280_humidity;BME280_pressure;Samples;Min_cycle;Max_cycle;Signal;HPM_P1;HPM_P2
2022/02/28 00:04:20;;;;;;;19.1;24.4;;;;;;;-2.1;79.8;100250;;;;
2022/02/28 00:14:18;;;;;;;19.1;24.4;;;;;;;-1.8;79.9;100250;;;;
2022/02/28 00:25:18;;;;;;;19.1;24.4;;;;;;;-1.6;79.3;100240;;;;
2022/02/28 00:35:18;;;;;;;20;30.9;;;;;;;-1.6;78.5;100230;;;;
2022/02/28 00:45:18;;;;;;;20;30.9;;;;;;;-1.5;77.8;100230;;;;
2022/02/28 00:55:18;;;;;;;20;30.9;;;;;;;-1.6;77.3;100220;;;;
2022/02/28 01:06:18;;;;;;;26.5;38.7;;;;;;;-1.7;77.2;100210;;;;
2022/02/28 01:16:18;;;;;;;26.5;38.7;;;;;;;-1.7;77;100200;;;;
2022/02/28 01:27:18;;;;;;;26.5;38.7;;;;;;;-1.7;76.6;100200;;;;
2022/02/28 01:38:18;;;;;;;22.6;31;;;;;;;-1.6;76.3;100200;;;;
2022/02/28 01:49:18;;;;;;;22.6;31;;;;;;;-1.6;75.8;100190;;;;
2022/02/28 02:00:18;;;;;;;17.8;22.6;;;;;;;-1.6;75.5;100180;;;;
2022/02/28 02:10:18;;;;;;;17.8;22.6;;;;;;;-1.8;75.5;100180;;;;
2022/02/28 02:21:18;;;;;;;17.8;22.6;;;;;;;-1.9;75.6;100180;;;;
2022/02/28 02:32:18;;;;;;;15.6;18.4;;;;;;;-2;76;100170;;;;
2022/02/28 02:42:18;;;;;;;15.6;18.4;;;;;;;-2;76.1;100170;;;;
2022/02/28 02:53:18;;;;;;;15.6;18.4;;;;;;;-1.9;76.1;100180;;;;
2022/02/28 03:04:18;;;;;;;16;20.2;;;;;;;-1.8;75.8;100180;;;;
2022/02/28 03:14:18;;;;;;;16;20.2;;;;;;;-1.8;75.9;100190;;;;
2022/02/28 03:25:18;;;;;;;16;20.2;;;;;;;-1.6;75.4;100180;;;;
2022/02/28 03:36:18;;;;;;;15.7;22.6;;;;;;;-1.7;75;100180;;;;
2022/02/28 03:46:18;;;;;;;15.7;22.6;;;;;;;-1.9;75;100190;;;;
2022/02/28 03:57:18;;;;;;;15.7;22.6;;;;;;;-2;75.3;100180;;;;
2022/02/28 04:07:18;;;;;;;14.8;19.6;;;;;;;-2.1;75.4;100190;;;;
2022/02/28 04:18:18;;;;;;;14.8;19.6;;;;;;;-2.1;75.3;100190;;;;
2022/02/28 04:29:18;;;;;;;12.7;16.9;;;;;;;-2.2;75.5;100190;;;;
2022/02/28 04:39:18;;;;;;;12.7;16.9;;;;;;;-2.4;75.8;100200;;;;
2022/02/28 04:50:18;;;;;;;12.7;16.9;;;;;;;-2.5;75.9;100210;;;;
2022/02/28 05:00:18;;;;;;;12.1;20;;;;;;;-2.7;76;100210;;;;
2022/02/28 05:11:18;;;;;;;12.1;20;;;;;;;-3;76.7;100210;;;;
2022/02/28 05:21:18;;;;;;;12.1;20;;;;;;;-3.1;77.4;100220;;;;
2022/02/28 05:32:18;;;;;;;11;16.1;;;;;;;-3.2;78;100220;;;;
2022/02/28 05:42:18;;;;;;;11;16.1;;;;;;;-3.1;78.3;100230;;;;
2022/02/28 05:53:18;;;;;;;11;16.1;;;;;;;-2.9;78.3;100240;;;;
2022/02/28 06:03:18;;;;;;;10.3;16.7;;;;;;;-2.7;77.8;100250;;;;
2022/02/28 06:13:18;;;;;;;10.3;16.7;;;;;;;-2.7;77.5;100250;;;;
2022/02/28 06:24:18;;;;;;;10.3;16.7;;;;;;;-2.6;77.5;100260;;;;
2022/02/28 06:34:18;;;;;;;12.1;18;;;;;;;-2.4;77.4;100270;;;;
2022/02/28 06:45:18;;;;;;;12.1;18;;;;;;;-2.2;76.8;100270;;;;
2022/02/28 06:55:18;;;;;;;12.1;18;;;;;;;-1.8;76.2;100280;;;;
2022/02/28 07:06:22;;;;;;;10.6;17;;;;;;;-1.3;75.2;100300;;;;
2022/02/28 07:16:18;;;;;;;10.6;17;;;;;;;-1.3;73.7;100300;;;;
2022/02/28 07:27:18;;;;;;;10.6;17;;;;;;;-1.2;73.3;100310;;;;
2022/02/28 07:37:18;;;;;;;9.4;12.4;;;;;;;-1;73.2;100330;;;;
2022/02/28 07:48:18;;;;;;;9.4;12.4;;;;;;;-0.6;72.2;100330;;;;
2022/02/28 07:58:18;;;;;;;8.4;13.9;;;;;;;-0.2;71;100340;;;;
2022/02/28 08:08:18;;;;;;;8.4;13.9;;;;;;;0;69.8;100340;;;;
2022/02/28 08:19:18;;;;;;;8.4;13.9;;;;;;;0;69.3;100340;;;;
2022/02/28 08:29:18;;;;;;;11.4;16.5;;;;;;;0.1;69.4;100360;;;;
2022/02/28 08:39:18;;;;;;;11.4;16.5;;;;;;;0;69.6;100370;;;;
2022/02/28 08:49:18;;;;;;;11.4;16.5;;;;;;;0.7;66.5;100370;;;;
2022/02/28 08:59:18;;;;;;;8;9.7;;;;;;;1.4;67.2;100370;;;;
2022/02/28 09:10:18;;;;;;;8;9.7;;;;;;;1.5;65.8;100380;;;;
2022/02/28 09:21:18;;;;;;;8;9.7;;;;;;;1.8;63.1;100380;;;;
2022/02/28 09:31:18;;;;;;;6.8;11.2;;;;;;;1.9;62.4;100380;;;;
2022/02/28 09:42:18;;;;;;;6.8;11.2;;;;;;;1.3;64.8;100390;;;;
2022/02/28 09:52:18;;;;;;;6.8;11.2;;;;;;;1.7;63.6;100390;;;;
2022/02/28 10:03:18;;;;;;;5.3;9.7;;;;;;;1.8;62.1;100390;;;;
2022/02/28 10:13:20;;;;;;;5.3;9.7;;;;;;;1.9;61.5;100390;;;;
2022/02/28 10:24:18;;;;;;;5.3;9.7;;;;;;;1.6;61;100390;;;;
2022/02/28 10:36:22;;;;;;;4.2;7.5;;;;;;;1.7;61;100390;;;;
2022/02/28 10:45:18;;;;;;;4.2;7.5;;;;;;;1.9;60.1;100380;;;;
2022/02/28 10:55:18;;;;;;;4.2;7.5;;;;;;;2.7;59.6;100390;;;;
2022/02/28 11:06:18;;;;;;;5.5;10.8;;;;;;;2.1;58.7;100390;;;;
2022/02/28 11:16:18;;;;;;;5.5;10.8;;;;;;;2.3;59.5;100390;;;;
2022/02/28 11:27:18;;;;;;;5.7;11.3;;;;;;;2.5;57.6;100400;;;;
2022/02/28 11:37:18;;;;;;;5.7;11.3;;;;;;;2.3;58.1;100400;;;;
2022/02/28 11:48:18;;;;;;;5.7;11.3;;;;;;;2.5;58.1;100400;;;;
2022/02/28 11:58:18;;;;;;;7.4;11.1;;;;;;;2.9;56.6;100410;;;;
2022/02/28 12:09:18;;;;;;;7.4;11.1;;;;;;;2.7;56.1;100420;;;;
2022/02/28 12:19:18;;;;;;;7.4;11.1;;;;;;;2.7;56.5;100420;;;;
2022/02/28 12:29:18;;;;;;;16.5;21.8;;;;;;;3.2;57.5;100420;;;;
2022/02/28 12:40:18;;;;;;;16.5;21.8;;;;;;;3.2;56.9;100430;;;;
2022/02/28 12:50:18;;;;;;;16.5;21.8;;;;;;;3.1;57.9;100440;;;;
2022/02/28 13:00:18;;;;;;;18.6;24.6;;;;;;;2.8;58.8;100450;;;;
2022/02/28 13:11:18;;;;;;;18.6;24.6;;;;;;;2.8;58.6;100450;;;;
2022/02/28 13:22:18;;;;;;;18.6;24.6;;;;;;;2.6;59.9;100450;;;;
2022/02/28 13:32:18;;;;;;;6.4;9.8;;;;;;;2.7;57.7;100450;;;;
2022/02/28 13:43:18;;;;;;;6.4;9.8;;;;;;;3;58.1;100460;;;;
2022/02/28 13:53:18;;;;;;;6.4;9.8;;;;;;;2.9;58.3;100460;;;;
2022/02/28 14:03:18;;;;;;;5;7.5;;;;;;;2.8;60;100470;;;;
2022/02/28 14:14:18;;;;;;;5;7.5;;;;;;;2.7;60.3;100460;;;;
2022/02/28 14:24:18;;;;;;;5;7.5;;;;;;;2.6;60.4;100470;;;;
2022/02/28 14:34:18;;;;;;;6.2;10.1;;;;;;;2.1;61.6;100470;;;;
2022/02/28 14:45:18;;;;;;;6.2;10.1;;;;;;;2.2;61.6;100480;;;;
2022/02/28 14:55:19;;;;;;;6.2;10.1;;;;;;;2.1;62.1;100490;;;;
2022/02/28 15:06:18;;;;;;;8.4;11.3;;;;;;;2.4;61.6;100490;;;;
2022/02/28 15:17:18;;;;;;;8.4;11.3;;;;;;;2.3;61.9;100500;;;;
2022/02/28 15:28:18;;;;;;;7.5;12;;;;;;;2.4;60.9;100500;;;;
2022/02/28 15:38:18;;;;;;;7.5;12;;;;;;;2.3;61.6;100510;;;;
2022/02/28 15:49:18;;;;;;;7.5;12;;;;;;;2.2;61.4;100510;;;;
2022/02/28 16:00:19;;;;;;;16.3;28.6;;;;;;;2.1;61.3;100520;;;;
2022/02/28 16:10:18;;;;;;;16.3;28.6;;;;;;;2.1;62.3;100520;;;;
2022/02/28 16:21:18;;;;;;;16.3;28.6;;;;;;;1.9;63.3;100520;;;;
2022/02/28 16:32:18;;;;;;;12.9;19;;;;;;;1.8;63.7;100530;;;;
2022/02/28 16:42:18;;;;;;;12.9;19;;;;;;;1.9;63.9;100540;;;;
2022/02/28 16:52:18;;;;;;;12.9;19;;;;;;;1.8;64.7;100550;;;;
2022/02/28 17:02:18;;;;;;;10.1;15.1;;;;;;;1.8;65;100550;;;;
2022/02/28 17:13:18;;;;;;;10.1;15.1;;;;;;;1.6;65.6;100560;;;;
2022/02/28 17:23:19;;;;;;;10.1;15.1;;;;;;;1.4;66.4;100570;;;;
2022/02/28 17:33:18;;;;;;;9.5;12.6;;;;;;;1.1;67;100590;;;;
2022/02/28 17:43:18;;;;;;;9.5;12.6;;;;;;;1.1;67.4;100590;;;;
2022/02/28 17:53:18;;;;;;;9.5;12.6;;;;;;;1.1;67.6;100600;;;;
2022/02/28 18:04:18;;;;;;;8.5;12.8;;;;;;;1.1;67.9;100610;;;;
2022/02/28 18:14:18;;;;;;;8.5;12.8;;;;;;;1.1;67.9;100620;;;;
2022/02/28 18:24:18;;;;;;;8.5;12.8;;;;;;;1;68.1;100610;;;;
2022/02/28 18:35:20;;;;;;;14.4;19.2;;;;;;;0.8;68.5;100610;;;;
2022/02/28 18:46:18;;;;;;;14.4;19.2;;;;;;;0.5;68.4;100620;;;;
2022/02/28 18:57:18;;;;;;;14.9;21.1;;;;;;;0.1;70.1;100630;;;;
2022/02/28 19:07:18;;;;;;;14.9;21.1;;;;;;;-0.2;70.7;100630;;;;
2022/02/28 19:17:18;;;;;;;14.9;21.1;;;;;;;-0.2;71.8;100630;;;;
2022/02/28 19:28:19;;;;;;;27;31.2;;;;;;;-0.2;71.3;100630;;;;
2022/02/28 19:38:18;;;;;;;27;31.2;;;;;;;-0.5;71.4;100640;;;;
2022/02/28 19:48:18;;;;;;;27;31.2;;;;;;;-0.7;71.7;100630;;;;
2022/02/28 19:58:19;;;;;;;28.6;33.1;;;;;;;-1;72.4;100610;;;;
2022/02/28 20:08:18;;;;;;;28.6;33.1;;;;;;;-1.2;72.9;100610;;;;
2022/02/28 20:19:18;;;;;;;28.6;33.1;;;;;;;-1.4;73;100610;;;;
2022/02/28 20:29:19;;;;;;;31.6;38.3;;;;;;;-1.7;72.6;100620;;;;
2022/02/28 20:40:18;;;;;;;31.6;38.3;;;;;;;-2.1;73;100610;;;;
2022/02/28 20:50:19;;;;;;;31.6;38.3;;;;;;;-2.2;74.5;100600;;;;
2022/02/28 21:01:21;;;;;;;44.2;53.1;;;;;;;-2.5;74.4;100610;;;;
2022/02/28 21:11:18;;;;;;;44.2;53.1;;;;;;;-2.7;75;100610;;;;
2022/02/28 21:22:18;;;;;;;44.2;53.1;;;;;;;-2.9;76.2;100600;;;;
2022/02/28 21:32:18;;;;;;;46.7;59.8;;;;;;;-2.9;76.8;100590;;;;
2022/02/28 21:43:18;;;;;;;46.7;59.8;;;;;;;-2.7;77.9;100590;;;;
2022/02/28 21:53:18;;;;;;;46.7;59.8;;;;;;;-2.7;78.2;100600;;;;
2022/02/28 22:03:18;;;;;;;35.4;46.9;;;;;;;-2.8;78.2;100590;;;;
2022/02/28 22:13:18;;;;;;;35.4;46.9;;;;;;;-2.8;78.7;100590;;;;
2022/02/28 22:23:18;;;;;;;35.4;46.9;;;;;;;-2.8;79;100590;;;;
2022/02/28 22:34:18;;;;;;;28.1;36.1;;;;;;;-2.7;80.1;100600;;;;
2022/02/28 22:45:18;;;;;;;28.1;36.1;;;;;;;-2.6;80.4;100600;;;;
2022/02/28 22:56:18;;;;;;;30.4;40;;;;;;;-2.5;79.6;100590;;;;
2022/02/28 23:06:18;;;;;;;30.4;40;;;;;;;-2.4;80.4;100580;;;;
2022/02/28 23:27:19;;;;;;;27.4;35.4;;;;;;;-2.5;80.4;100580;;;;
2022/02/28 23:37:18;;;;;;;27.4;35.4;;;;;;;-2.6;79.9;100580;;;;
2022/02/28 23:48:18;;;;;;;27.4;35.4;;;;;;;-2.8;79.6;100580;;;;
2022/02/28 23:58:18;;;;;;;34.5;46.7;;;;;;;-3;79.7;100580;;;;
